Archival Weather

Snohomish County (Paine Fld)

Everett, Washington (KPAE)

Report from: Monday, October 23, 2023 6:53 AM PDT
Current time: Monday, June 17, 2024 12:04 AM PDT

Current weather – Weather history – Daily summaries
Weather forecast

Present weatherMist
Temperature10.6°C (51.1°F)
Dew point9.4°C (48.9°F)
Winds 5 kts (2.6 m/s, 5.8 mph) South (170°)
Visibility5 mi. (8 km)
Clouds Ceiling: Overcast 300 ft. (91 m)
Altimeter29.98 in.Hg (1015 mB)
Relative humidity92 %
Density altitude-431 ft. (-131 m)
Sea-level pressure101.5 kPa (1015 mB, 29.98 in.Hg)
Remarks Automated weather observing station with precipitation discriminator
Flight conditions Low Instrument Meteorological Conditions
Raw dataKPAE 231353Z 17005KT 5SM BR OVC003 11/09 A2998 RMK AO2 SLP154 T01060094
An error has occurred. This application may no longer respond until reloaded. Reload 🗙